sensor_id;sensor_type;location;lat;lon;timestamp;P1;durP1;ratioP1;P2;durP2;ratioP2
9888;SDS011;4983;42.112;24.738;2023-03-25T00:01:29;23.57;;;20.03;;
9888;SDS011;4983;42.112;24.738;2023-03-25T00:03:57;20.60;;;16.43;;
9888;SDS011;4983;42.112;24.738;2023-03-25T00:06:25;20.07;;;17.53;;
9888;SDS011;4983;42.112;24.738;2023-03-25T00:08:52;20.63;;;17.77;;
9888;SDS011;4983;42.112;24.738;2023-03-25T00:11:19;22.63;;;19.13;;
9888;SDS011;4983;42.112;24.738;2023-03-25T00:13:46;22.13;;;19.80;;
9888;SDS011;4983;42.112;24.738;2023-03-25T00:16:14;24.33;;;19.93;;
9888;SDS011;4983;42.112;24.738;2023-03-25T00:18:43;32.03;;;22.00;;
9888;SDS011;4983;42.112;24.738;2023-03-25T00:21:12;30.60;;;27.63;;
9888;SDS011;4983;42.112;24.738;2023-03-25T00:23:39;35.83;;;32.23;;
9888;SDS011;4983;42.112;24.738;2023-03-25T00:26:06;28.67;;;24.43;;
9888;SDS011;4983;42.112;24.738;2023-03-25T00:28:34;25.73;;;22.93;;
9888;SDS011;4983;42.112;24.738;2023-03-25T00:31:01;24.20;;;21.20;;
9888;SDS011;4983;42.112;24.738;2023-03-25T00:33:29;27.00;;;22.53;;
9888;SDS011;4983;42.112;24.738;2023-03-25T00:35:57;25.63;;;21.73;;
9888;SDS011;4983;42.112;24.738;2023-03-25T00:38:24;24.53;;;21.07;;
9888;SDS011;4983;42.112;24.738;2023-03-25T00:40:58;25.37;;;22.20;;
9888;SDS011;4983;42.112;24.738;2023-03-25T00:43:28;23.47;;;20.47;;
9888;SDS011;4983;42.112;24.738;2023-03-25T00:45:55;27.03;;;21.43;;
9888;SDS011;4983;42.112;24.738;2023-03-25T00:48:21;28.20;;;21.70;;
9888;SDS011;4983;42.112;24.738;2023-03-25T00:50:50;44.90;;;40.30;;
9888;SDS011;4983;42.112;24.738;2023-03-25T00:53:17;40.13;;;28.77;;
9888;SDS011;4983;42.112;24.738;2023-03-25T00:55:45;36.83;;;28.17;;
9888;SDS011;4983;42.112;24.738;2023-03-25T00:58:13;27.40;;;24.10;;
9888;SDS011;4983;42.112;24.738;2023-03-25T01:00:39;30.03;;;26.20;;
9888;SDS011;4983;42.112;24.738;2023-03-25T01:03:06;31.00;;;27.40;;
9888;SDS011;4983;42.112;24.738;2023-03-25T01:05:33;28.83;;;25.73;;
9888;SDS011;4983;42.112;24.738;2023-03-25T01:08:01;32.67;;;26.93;;
9888;SDS011;4983;42.112;24.738;2023-03-25T01:10:28;33.50;;;25.67;;
9888;SDS011;4983;42.112;24.738;2023-03-25T01:12:55;33.73;;;27.50;;
9888;SDS011;4983;42.112;24.738;2023-03-25T01:15:22;33.10;;;28.00;;
9888;SDS011;4983;42.112;24.738;2023-03-25T01:17:48;35.20;;;30.47;;
9888;SDS011;4983;42.112;24.738;2023-03-25T01:20:16;39.27;;;35.17;;
9888;SDS011;4983;42.112;24.738;2023-03-25T01:22:44;63.33;;;40.87;;
9888;SDS011;4983;42.112;24.738;2023-03-25T01:25:12;47.37;;;39.53;;
9888;SDS011;4983;42.112;24.738;2023-03-25T01:27:38;46.73;;;41.77;;
9888;SDS011;4983;42.112;24.738;2023-03-25T01:30:05;37.13;;;31.87;;
9888;SDS011;4983;42.112;24.738;2023-03-25T01:32:33;40.27;;;31.00;;
9888;SDS011;4983;42.112;24.738;2023-03-25T01:35:01;36.70;;;30.53;;
9888;SDS011;4983;42.112;24.738;2023-03-25T01:37:29;35.63;;;30.33;;
9888;SDS011;4983;42.112;24.738;2023-03-25T01:39:58;40.77;;;31.80;;
9888;SDS011;4983;42.112;24.738;2023-03-25T01:42:26;38.87;;;30.87;;
9888;SDS011;4983;42.112;24.738;2023-03-25T01:47:48;40.30;;;32.20;;
9888;SDS011;4983;42.112;24.738;2023-03-25T01:50:18;43.23;;;31.67;;
9888;SDS011;4983;42.112;24.738;2023-03-25T01:52:48;40.77;;;33.53;;
9888;SDS011;4983;42.112;24.738;2023-03-25T01:55:16;38.57;;;31.43;;
9888;SDS011;4983;42.112;24.738;2023-03-25T01:57:46;42.10;;;31.30;;
9888;SDS011;4983;42.112;24.738;2023-03-25T02:00:13;35.93;;;30.73;;
9888;SDS011;4983;42.112;24.738;2023-03-25T02:02:42;41.50;;;30.67;;
9888;SDS011;4983;42.112;24.738;2023-03-25T02:05:11;37.53;;;31.60;;
9888;SDS011;4983;42.112;24.738;2023-03-25T02:07:43;38.30;;;34.17;;
9888;SDS011;4983;42.112;24.738;2023-03-25T02:10:11;43.10;;;36.63;;
9888;SDS011;4983;42.112;24.738;2023-03-25T02:12:39;39.23;;;35.03;;
9888;SDS011;4983;42.112;24.738;2023-03-25T02:15:08;37.23;;;32.40;;
9888;SDS011;4983;42.112;24.738;2023-03-25T02:17:39;32.13;;;28.63;;
9888;SDS011;4983;42.112;24.738;2023-03-25T02:20:21;35.57;;;30.20;;
9888;SDS011;4983;42.112;24.738;2023-03-25T02:23:13;37.97;;;32.47;;
9888;SDS011;4983;42.112;24.738;2023-03-25T02:25:50;36.60;;;30.23;;
9888;SDS011;4983;42.112;24.738;2023-03-25T02:28:24;43.00;;;36.40;;
9888;SDS011;4983;42.112;24.738;2023-03-25T02:31:12;37.40;;;30.83;;
9888;SDS011;4983;42.112;24.738;2023-03-25T02:33:50;43.23;;;38.67;;
9888;SDS011;4983;42.112;24.738;2023-03-25T02:39:08;37.20;;;31.47;;
9888;SDS011;4983;42.112;24.738;2023-03-25T02:41:38;34.83;;;29.47;;
9888;SDS011;4983;42.112;24.738;2023-03-25T02:44:06;34.37;;;29.50;;
9888;SDS011;4983;42.112;24.738;2023-03-25T02:46:36;38.13;;;32.47;;
9888;SDS011;4983;42.112;24.738;2023-03-25T02:49:07;34.43;;;30.73;;
9888;SDS011;4983;42.112;24.738;2023-03-25T02:51:35;32.80;;;25.97;;
9888;SDS011;4983;42.112;24.738;2023-03-25T02:54:06;29.80;;;25.50;;
9888;SDS011;4983;42.112;24.738;2023-03-25T02:56:36;27.83;;;24.47;;
9888;SDS011;4983;42.112;24.738;2023-03-25T02:59:04;29.53;;;23.90;;
9888;SDS011;4983;42.112;24.738;2023-03-25T03:01:32;30.37;;;23.67;;
9888;SDS011;4983;42.112;24.738;2023-03-25T03:03:58;26.17;;;21.60;;
9888;SDS011;4983;42.112;24.738;2023-03-25T03:06:26;24.50;;;20.73;;
9888;SDS011;4983;42.112;24.738;2023-03-25T03:08:59;23.13;;;19.93;;
9888;SDS011;4983;42.112;24.738;2023-03-25T03:11:28;23.33;;;18.50;;
9888;SDS011;4983;42.112;24.738;2023-03-25T03:14:02;19.17;;;16.90;;
9888;SDS011;4983;42.112;24.738;2023-03-25T03:16:36;22.73;;;18.30;;
9888;SDS011;4983;42.112;24.738;2023-03-25T03:19:11;20.13;;;16.67;;
9888;SDS011;4983;42.112;24.738;2023-03-25T03:21:47;20.17;;;17.93;;
9888;SDS011;4983;42.112;24.738;2023-03-25T03:24:18;22.23;;;19.90;;
9888;SDS011;4983;42.112;24.738;2023-03-25T03:26:47;27.50;;;24.83;;
9888;SDS011;4983;42.112;24.738;2023-03-25T03:29:19;35.03;;;26.60;;
9888;SDS011;4983;42.112;24.738;2023-03-25T03:31:51;27.17;;;21.40;;
9888;SDS011;4983;42.112;24.738;2023-03-25T03:34:23;22.83;;;20.43;;
9888;SDS011;4983;42.112;24.738;2023-03-25T03:36:53;24.70;;;22.33;;
9888;SDS011;4983;42.112;24.738;2023-03-25T03:39:21;31.90;;;27.40;;
9888;SDS011;4983;42.112;24.738;2023-03-25T03:41:49;31.20;;;27.90;;
9888;SDS011;4983;42.112;24.738;2023-03-25T03:44:20;24.03;;;21.33;;
9888;SDS011;4983;42.112;24.738;2023-03-25T03:46:51;21.13;;;18.60;;
9888;SDS011;4983;42.112;24.738;2023-03-25T03:49:20;18.37;;;16.43;;
9888;SDS011;4983;42.112;24.738;2023-03-25T03:51:48;18.27;;;16.13;;
9888;SDS011;4983;42.112;24.738;2023-03-25T03:54:17;17.10;;;14.83;;
9888;SDS011;4983;42.112;24.738;2023-03-25T03:56:46;16.77;;;15.03;;
9888;SDS011;4983;42.112;24.738;2023-03-25T03:59:21;18.63;;;16.60;;
9888;SDS011;4983;42.112;24.738;2023-03-25T04:01:49;20.50;;;18.23;;
9888;SDS011;4983;42.112;24.738;2023-03-25T04:04:18;38.67;;;18.30;;
9888;SDS011;4983;42.112;24.738;2023-03-25T04:06:46;42.37;;;21.47;;
9888;SDS011;4983;42.112;24.738;2023-03-25T04:09:16;34.83;;;19.03;;
9888;SDS011;4983;42.112;24.738;2023-03-25T04:11:52;31.47;;;21.90;;
9888;SDS011;4983;42.112;24.738;2023-03-25T04:14:21;24.93;;;20.00;;
9888;SDS011;4983;42.112;24.738;2023-03-25T04:16:48;22.73;;;18.17;;
9888;SDS011;4983;42.112;24.738;2023-03-25T04:19:17;18.00;;;15.57;;
9888;SDS011;4983;42.112;24.738;2023-03-25T04:21:44;17.10;;;15.33;;
9888;SDS011;4983;42.112;24.738;2023-03-25T04:24:12;18.17;;;15.20;;
9888;SDS011;4983;42.112;24.738;2023-03-25T04:26:41;19.23;;;15.60;;
9888;SDS011;4983;42.112;24.738;2023-03-25T04:29:08;23.10;;;16.20;;
9888;SDS011;4983;42.112;24.738;2023-03-25T04:31:36;18.70;;;15.97;;
9888;SDS011;4983;42.112;24.738;2023-03-25T04:34:10;20.30;;;17.03;;
9888;SDS011;4983;42.112;24.738;2023-03-25T04:36:37;23.77;;;21.47;;
9888;SDS011;4983;42.112;24.738;2023-03-25T04:39:07;33.87;;;20.40;;
9888;SDS011;4983;42.112;24.738;2023-03-25T04:41:34;25.43;;;19.70;;
9888;SDS011;4983;42.112;24.738;2023-03-25T04:44:01;28.07;;;18.43;;
9888;SDS011;4983;42.112;24.738;2023-03-25T04:46:31;25.50;;;19.40;;
9888;SDS011;4983;42.112;24.738;2023-03-25T04:49:00;23.13;;;18.60;;
9888;SDS011;4983;42.112;24.738;2023-03-25T04:51:28;30.20;;;20.17;;
9888;SDS011;4983;42.112;24.738;2023-03-25T04:53:55;25.97;;;20.43;;
9888;SDS011;4983;42.112;24.738;2023-03-25T04:56:22;24.57;;;17.23;;
9888;SDS011;4983;42.112;24.738;2023-03-25T04:58:48;48.97;;;18.50;;
9888;SDS011;4983;42.112;24.738;2023-03-25T05:01:19;25.27;;;16.60;;
9888;SDS011;4983;42.112;24.738;2023-03-25T05:03:46;37.20;;;16.70;;
9888;SDS011;4983;42.112;24.738;2023-03-25T05:06:16;30.67;;;15.73;;
9888;SDS011;4983;42.112;24.738;2023-03-25T05:08:42;28.43;;;15.37;;
9888;SDS011;4983;42.112;24.738;2023-03-25T05:11:09;45.67;;;18.80;;
9888;SDS011;4983;42.112;24.738;2023-03-25T05:13:36;22.20;;;16.53;;
9888;SDS011;4983;42.112;24.738;2023-03-25T05:16:03;23.57;;;17.33;;
9888;SDS011;4983;42.112;24.738;2023-03-25T05:18:30;20.93;;;18.07;;
9888;SDS011;4983;42.112;24.738;2023-03-25T05:20:59;37.33;;;25.67;;
9888;SDS011;4983;42.112;24.738;2023-03-25T05:23:28;58.40;;;34.13;;
9888;SDS011;4983;42.112;24.738;2023-03-25T05:25:55;41.50;;;22.67;;
9888;SDS011;4983;42.112;24.738;2023-03-25T05:28:23;37.20;;;20.87;;
9888;SDS011;4983;42.112;24.738;2023-03-25T05:30:50;31.57;;;25.07;;
9888;SDS011;4983;42.112;24.738;2023-03-25T05:33:17;33.80;;;20.43;;
9888;SDS011;4983;42.112;24.738;2023-03-25T05:35:45;30.23;;;19.20;;
9888;SDS011;4983;42.112;24.738;2023-03-25T05:38:12;32.77;;;20.70;;
9888;SDS011;4983;42.112;24.738;2023-03-25T05:40:43;65.03;;;22.70;;
9888;SDS011;4983;42.112;24.738;2023-03-25T05:43:11;30.23;;;19.13;;
9888;SDS011;4983;42.112;24.738;2023-03-25T05:45:39;35.20;;;21.97;;
9888;SDS011;4983;42.112;24.738;2023-03-25T05:48:06;23.73;;;17.43;;
9888;SDS011;4983;42.112;24.738;2023-03-25T05:50:34;22.87;;;18.37;;
9888;SDS011;4983;42.112;24.738;2023-03-25T05:53:01;23.07;;;18.70;;
9888;SDS011;4983;42.112;24.738;2023-03-25T05:55:30;27.83;;;19.20;;
9888;SDS011;4983;42.112;24.738;2023-03-25T05:57:58;41.80;;;22.93;;
9888;SDS011;4983;42.112;24.738;2023-03-25T06:00:25;23.67;;;21.17;;
9888;SDS011;4983;42.112;24.738;2023-03-25T06:02:52;44.37;;;20.43;;
9888;SDS011;4983;42.112;24.738;2023-03-25T06:05:19;23.77;;;16.80;;
9888;SDS011;4983;42.112;24.738;2023-03-25T06:07:47;19.90;;;15.60;;
9888;SDS011;4983;42.112;24.738;2023-03-25T06:10:15;17.93;;;13.73;;
9888;SDS011;4983;42.112;24.738;2023-03-25T06:12:43;23.67;;;16.07;;
9888;SDS011;4983;42.112;24.738;2023-03-25T06:15:13;20.60;;;15.67;;
9888;SDS011;4983;42.112;24.738;2023-03-25T06:17:41;17.37;;;14.60;;
9888;SDS011;4983;42.112;24.738;2023-03-25T06:20:10;22.10;;;15.47;;
9888;SDS011;4983;42.112;24.738;2023-03-25T06:22:39;47.37;;;18.17;;
9888;SDS011;4983;42.112;24.738;2023-03-25T06:25:07;23.70;;;14.00;;
9888;SDS011;4983;42.112;24.738;2023-03-25T06:27:34;18.90;;;14.37;;
9888;SDS011;4983;42.112;24.738;2023-03-25T06:30:05;17.47;;;13.47;;
9888;SDS011;4983;42.112;24.738;2023-03-25T06:32:35;18.27;;;13.73;;
9888;SDS011;4983;42.112;24.738;2023-03-25T06:35:02;15.73;;;13.23;;
9888;SDS011;4983;42.112;24.738;2023-03-25T06:37:29;21.90;;;14.03;;
9888;SDS011;4983;42.112;24.738;2023-03-25T06:39:56;18.87;;;13.20;;
9888;SDS011;4983;42.112;24.738;2023-03-25T06:42:24;29.80;;;14.90;;
9888;SDS011;4983;42.112;24.738;2023-03-25T06:44:51;48.90;;;17.27;;
9888;SDS011;4983;42.112;24.738;2023-03-25T06:47:17;15.40;;;13.00;;
9888;SDS011;4983;42.112;24.738;2023-03-25T06:49:46;14.00;;;12.07;;
9888;SDS011;4983;42.112;24.738;2023-03-25T06:52:12;16.27;;;12.47;;
9888;SDS011;4983;42.112;24.738;2023-03-25T06:54:39;13.87;;;11.33;;
9888;SDS011;4983;42.112;24.738;2023-03-25T06:57:06;18.03;;;12.73;;
9888;SDS011;4983;42.112;24.738;2023-03-25T06:59:33;26.50;;;13.83;;
9888;SDS011;4983;42.112;24.738;2023-03-25T07:01:59;54.53;;;17.73;;
9888;SDS011;4983;42.112;24.738;2023-03-25T07:04:26;15.77;;;11.67;;
9888;SDS011;4983;42.112;24.738;2023-03-25T07:06:54;13.97;;;11.03;;
9888;SDS011;4983;42.112;24.738;2023-03-25T07:09:21;12.60;;;11.30;;
9888;SDS011;4983;42.112;24.738;2023-03-25T07:11:47;12.27;;;10.93;;
9888;SDS011;4983;42.112;24.738;2023-03-25T07:14:14;12.10;;;10.80;;
9888;SDS011;4983;42.112;24.738;2023-03-25T07:16:41;22.60;;;12.23;;
9888;SDS011;4983;42.112;24.738;2023-03-25T07:19:08;10.90;;;9.57;;
9888;SDS011;4983;42.112;24.738;2023-03-25T07:21:34;11.90;;;9.90;;
9888;SDS011;4983;42.112;24.738;2023-03-25T07:24:02;12.33;;;10.07;;
9888;SDS011;4983;42.112;24.738;2023-03-25T07:26:30;11.70;;;10.50;;
9888;SDS011;4983;42.112;24.738;2023-03-25T07:28:56;10.70;;;9.60;;
9888;SDS011;4983;42.112;24.738;2023-03-25T07:31:24;14.47;;;10.03;;
9888;SDS011;4983;42.112;24.738;2023-03-25T07:33:50;12.67;;;9.57;;
9888;SDS011;4983;42.112;24.738;2023-03-25T07:36:20;12.00;;;8.97;;
9888;SDS011;4983;42.112;24.738;2023-03-25T07:38:48;16.53;;;10.33;;
9888;SDS011;4983;42.112;24.738;2023-03-25T07:41:17;22.80;;;10.70;;
9888;SDS011;4983;42.112;24.738;2023-03-25T07:43:43;12.93;;;9.30;;
9888;SDS011;4983;42.112;24.738;2023-03-25T07:46:10;13.67;;;8.80;;
9888;SDS011;4983;42.112;24.738;2023-03-25T07:48:37;16.47;;;9.27;;
9888;SDS011;4983;42.112;24.738;2023-03-25T07:51:04;17.10;;;9.23;;
9888;SDS011;4983;42.112;24.738;2023-03-25T07:53:30;11.83;;;9.50;;
9888;SDS011;4983;42.112;24.738;2023-03-25T07:55:57;11.83;;;9.73;;
9888;SDS011;4983;42.112;24.738;2023-03-25T07:58:26;13.57;;;9.80;;
9888;SDS011;4983;42.112;24.738;2023-03-25T08:00:55;14.63;;;9.80;;
9888;SDS011;4983;42.112;24.738;2023-03-25T08:03:22;12.80;;;9.73;;
9888;SDS011;4983;42.112;24.738;2023-03-25T08:05:49;15.23;;;9.73;;
9888;SDS011;4983;42.112;24.738;2023-03-25T08:08:16;18.17;;;10.43;;
9888;SDS011;4983;42.112;24.738;2023-03-25T08:10:43;12.97;;;9.30;;
9888;SDS011;4983;42.112;24.738;2023-03-25T08:13:11;9.60;;;8.60;;
9888;SDS011;4983;42.112;24.738;2023-03-25T08:15:39;12.00;;;8.87;;
9888;SDS011;4983;42.112;24.738;2023-03-25T08:18:06;11.23;;;8.70;;
9888;SDS011;4983;42.112;24.738;2023-03-25T08:20:33;22.50;;;9.47;;
9888;SDS011;4983;42.112;24.738;2023-03-25T08:23:00;15.83;;;8.80;;
9888;SDS011;4983;42.112;24.738;2023-03-25T08:25:27;14.27;;;8.77;;
9888;SDS011;4983;42.112;24.738;2023-03-25T08:27:54;9.53;;;8.33;;
9888;SDS011;4983;42.112;24.738;2023-03-25T08:30:22;11.20;;;8.50;;
9888;SDS011;4983;42.112;24.738;2023-03-25T08:32:50;10.63;;;8.33;;
9888;SDS011;4983;42.112;24.738;2023-03-25T08:35:20;9.43;;;8.33;;
9888;SDS011;4983;42.112;24.738;2023-03-25T08:37:46;10.53;;;8.37;;
9888;SDS011;4983;42.112;24.738;2023-03-25T08:40:13;9.03;;;7.60;;
9888;SDS011;4983;42.112;24.738;2023-03-25T08:42:43;15.23;;;8.83;;
9888;SDS011;4983;42.112;24.738;2023-03-25T08:45:11;15.13;;;8.00;;
9888;SDS011;4983;42.112;24.738;2023-03-25T08:47:39;19.23;;;9.47;;
9888;SDS011;4983;42.112;24.738;2023-03-25T08:50:09;9.63;;;8.20;;
9888;SDS011;4983;42.112;24.738;2023-03-25T08:52:36;24.33;;;9.50;;
9888;SDS011;4983;42.112;24.738;2023-03-25T08:55:03;14.97;;;8.90;;
9888;SDS011;4983;42.112;24.738;2023-03-25T08:57:33;18.87;;;8.77;;
9888;SDS011;4983;42.112;24.738;2023-03-25T09:00:03;13.40;;;8.37;;
9888;SDS011;4983;42.112;24.738;2023-03-25T09:02:34;13.40;;;8.37;;
9888;SDS011;4983;42.112;24.738;2023-03-25T09:05:01;12.50;;;8.07;;
9888;SDS011;4983;42.112;24.738;2023-03-25T09:07:30;11.07;;;8.23;;
9888;SDS011;4983;42.112;24.738;2023-03-25T09:09:56;19.80;;;8.37;;
9888;SDS011;4983;42.112;24.738;2023-03-25T09:12:23;22.87;;;8.50;;
9888;SDS011;4983;42.112;24.738;2023-03-25T09:14:50;9.23;;;8.20;;
9888;SDS011;4983;42.112;24.738;2023-03-25T09:17:18;18.17;;;8.50;;
9888;SDS011;4983;42.112;24.738;2023-03-25T09:19:45;8.90;;;7.70;;
9888;SDS011;4983;42.112;24.738;2023-03-25T09:22:12;15.63;;;8.83;;
9888;SDS011;4983;42.112;24.738;2023-03-25T09:24:40;13.43;;;8.13;;
9888;SDS011;4983;42.112;24.738;2023-03-25T09:27:07;15.07;;;8.40;;
9888;SDS011;4983;42.112;24.738;2023-03-25T09:29:35;15.97;;;7.97;;
9888;SDS011;4983;42.112;24.738;2023-03-25T09:32:02;11.17;;;8.33;;
9888;SDS011;4983;42.112;24.738;2023-03-25T09:34:29;16.57;;;9.23;;
9888;SDS011;4983;42.112;24.738;2023-03-25T09:36:57;30.63;;;10.33;;
9888;SDS011;4983;42.112;24.738;2023-03-25T09:39:24;25.37;;;10.47;;
9888;SDS011;4983;42.112;24.738;2023-03-25T09:42:03;13.50;;;10.10;;
9888;SDS011;4983;42.112;24.738;2023-03-25T09:44:33;12.20;;;9.50;;
9888;SDS011;4983;42.112;24.738;2023-03-25T09:47:01;16.63;;;9.23;;
9888;SDS011;4983;42.112;24.738;2023-03-25T09:49:30;10.77;;;9.30;;
9888;SDS011;4983;42.112;24.738;2023-03-25T09:52:02;13.20;;;9.77;;
9888;SDS011;4983;42.112;24.738;2023-03-25T09:54:30;45.17;;;12.17;;
9888;SDS011;4983;42.112;24.738;2023-03-25T09:56:58;10.70;;;9.40;;
9888;SDS011;4983;42.112;24.738;2023-03-25T09:59:34;17.03;;;9.53;;
9888;SDS011;4983;42.112;24.738;2023-03-25T10:02:05;31.03;;;13.03;;
9888;SDS011;4983;42.112;24.738;2023-03-25T10:04:39;15.63;;;10.50;;
9888;SDS011;4983;42.112;24.738;2023-03-25T10:07:16;11.87;;;10.20;;
9888;SDS011;4983;42.112;24.738;2023-03-25T10:09:49;11.60;;;9.47;;
9888;SDS011;4983;42.112;24.738;2023-03-25T10:12:24;17.30;;;10.57;;
9888;SDS011;4983;42.112;24.738;2023-03-25T10:14:56;14.10;;;10.33;;
9888;SDS011;4983;42.112;24.738;2023-03-25T10:17:26;13.20;;;11.53;;
9888;SDS011;4983;42.112;24.738;2023-03-25T10:19:57;12.43;;;11.00;;
9888;SDS011;4983;42.112;24.738;2023-03-25T10:22:26;13.40;;;10.50;;
9888;SDS011;4983;42.112;24.738;2023-03-25T10:24:55;18.80;;;11.17;;
9888;SDS011;4983;42.112;24.738;2023-03-25T10:27:24;11.80;;;10.37;;
9888;SDS011;4983;42.112;24.738;2023-03-25T10:29:53;12.87;;;9.97;;
9888;SDS011;4983;42.112;24.738;2023-03-25T10:32:24;10.03;;;9.03;;
9888;SDS011;4983;42.112;24.738;2023-03-25T10:34:55;10.67;;;9.67;;
9888;SDS011;4983;42.112;24.738;2023-03-25T10:37:24;12.97;;;8.87;;
9888;SDS011;4983;42.112;24.738;2023-03-25T10:39:52;23.67;;;9.97;;
9888;SDS011;4983;42.112;24.738;2023-03-25T10:42:23;11.17;;;9.07;;
9888;SDS011;4983;42.112;24.738;2023-03-25T10:44:51;11.70;;;7.90;;
9888;SDS011;4983;42.112;24.738;2023-03-25T10:47:19;9.63;;;8.43;;
9888;SDS011;4983;42.112;24.738;2023-03-25T10:49:49;9.13;;;8.23;;
9888;SDS011;4983;42.112;24.738;2023-03-25T10:52:16;15.50;;;9.60;;
9888;SDS011;4983;42.112;24.738;2023-03-25T10:54:44;14.73;;;9.50;;
9888;SDS011;4983;42.112;24.738;2023-03-25T10:57:14;17.60;;;9.27;;
9888;SDS011;4983;42.112;24.738;2023-03-25T10:59:42;43.83;;;13.20;;
9888;SDS011;4983;42.112;24.738;2023-03-25T11:02:12;17.13;;;9.00;;
9888;SDS011;4983;42.112;24.738;2023-03-25T11:04:41;20.27;;;8.73;;
9888;SDS011;4983;42.112;24.738;2023-03-25T11:07:14;11.73;;;8.00;;
9888;SDS011;4983;42.112;24.738;2023-03-25T11:09:41;11.00;;;8.43;;
9888;SDS011;4983;42.112;24.738;2023-03-25T11:12:08;12.83;;;7.53;;
9888;SDS011;4983;42.112;24.738;2023-03-25T11:14:35;13.20;;;7.27;;
9888;SDS011;4983;42.112;24.738;2023-03-25T11:17:03;11.17;;;7.20;;
9888;SDS011;4983;42.112;24.738;2023-03-25T11:19:36;9.57;;;6.80;;
9888;SDS011;4983;42.112;24.738;2023-03-25T11:22:07;8.30;;;7.27;;
9888;SDS011;4983;42.112;24.738;2023-03-25T11:24:39;11.47;;;7.60;;
9888;SDS011;4983;42.112;24.738;2023-03-25T11:27:07;8.13;;;7.33;;
9888;SDS011;4983;42.112;24.738;2023-03-25T11:29:36;16.43;;;8.03;;
9888;SDS011;4983;42.112;24.738;2023-03-25T11:32:04;9.93;;;7.07;;
9888;SDS011;4983;42.112;24.738;2023-03-25T11:34:33;8.90;;;6.90;;
9888;SDS011;4983;42.112;24.738;2023-03-25T11:37:11;7.77;;;6.83;;
9888;SDS011;4983;42.112;24.738;2023-03-25T11:39:41;7.33;;;6.63;;
9888;SDS011;4983;42.112;24.738;2023-03-25T11:42:11;11.60;;;6.83;;
9888;SDS011;4983;42.112;24.738;2023-03-25T11:44:39;11.30;;;7.00;;
9888;SDS011;4983;42.112;24.738;2023-03-25T11:47:06;12.30;;;6.23;;
9888;SDS011;4983;42.112;24.738;2023-03-25T11:49:35;9.43;;;6.43;;
9888;SDS011;4983;42.112;24.738;2023-03-25T11:52:03;13.53;;;6.93;;
9888;SDS011;4983;42.112;24.738;2023-03-25T11:54:31;8.47;;;6.50;;
9888;SDS011;4983;42.112;24.738;2023-03-25T11:56:59;9.63;;;6.43;;
9888;SDS011;4983;42.112;24.738;2023-03-25T11:59:34;6.57;;;5.97;;
9888;SDS011;4983;42.112;24.738;2023-03-25T12:02:02;11.17;;;6.60;;
9888;SDS011;4983;42.112;24.738;2023-03-25T12:04:29;18.53;;;7.10;;
9888;SDS011;4983;42.112;24.738;2023-03-25T12:06:57;10.13;;;6.20;;
9888;SDS011;4983;42.112;24.738;2023-03-25T12:09:25;7.87;;;5.70;;
9888;SDS011;4983;42.112;24.738;2023-03-25T12:11:54;7.03;;;5.20;;
9888;SDS011;4983;42.112;24.738;2023-03-25T12:14:27;9.03;;;6.00;;
9888;SDS011;4983;42.112;24.738;2023-03-25T12:16:57;10.00;;;5.80;;
9888;SDS011;4983;42.112;24.738;2023-03-25T12:19:27;11.33;;;6.00;;
9888;SDS011;4983;42.112;24.738;2023-03-25T12:22:05;7.43;;;5.63;;
9888;SDS011;4983;42.112;24.738;2023-03-25T12:24:41;11.10;;;6.30;;
9888;SDS011;4983;42.112;24.738;2023-03-25T12:27:14;10.27;;;6.20;;
9888;SDS011;4983;42.112;24.738;2023-03-25T12:29:46;9.87;;;6.30;;
9888;SDS011;4983;42.112;24.738;2023-03-25T12:32:18;7.90;;;5.70;;
9888;SDS011;4983;42.112;24.738;2023-03-25T12:34:49;14.07;;;6.70;;
9888;SDS011;4983;42.112;24.738;2023-03-25T12:37:19;5.93;;;5.33;;
9888;SDS011;4983;42.112;24.738;2023-03-25T12:39:52;16.67;;;6.63;;
9888;SDS011;4983;42.112;24.738;2023-03-25T12:42:24;5.97;;;5.33;;
9888;SDS011;4983;42.112;24.738;2023-03-25T12:45:05;9.17;;;5.20;;
9888;SDS011;4983;42.112;24.738;2023-03-25T12:47:40;13.23;;;6.23;;
9888;SDS011;4983;42.112;24.738;2023-03-25T12:50:19;7.80;;;5.37;;
9888;SDS011;4983;42.112;24.738;2023-03-25T12:52:52;6.47;;;5.17;;
9888;SDS011;4983;42.112;24.738;2023-03-25T12:55:28;10.10;;;7.03;;
9888;SDS011;4983;42.112;24.738;2023-03-25T12:58:02;17.50;;;5.13;;
9888;SDS011;4983;42.112;24.738;2023-03-25T13:00:38;9.53;;;5.27;;
9888;SDS011;4983;42.112;24.738;2023-03-25T13:05:57;24.30;;;5.90;;
9888;SDS011;4983;42.112;24.738;2023-03-25T13:08:26;13.53;;;6.57;;
9888;SDS011;4983;42.112;24.738;2023-03-25T13:10:57;9.37;;;6.50;;
9888;SDS011;4983;42.112;24.738;2023-03-25T13:13:26;11.73;;;6.83;;
9888;SDS011;4983;42.112;24.738;2023-03-25T13:15:59;14.97;;;6.73;;
9888;SDS011;4983;42.112;24.738;2023-03-25T13:18:34;21.90;;;8.20;;
9888;SDS011;4983;42.112;24.738;2023-03-25T13:21:03;6.93;;;6.23;;
9888;SDS011;4983;42.112;24.738;2023-03-25T13:23:31;14.43;;;6.30;;
9888;SDS011;4983;42.112;24.738;2023-03-25T13:26:00;9.00;;;5.90;;
9888;SDS011;4983;42.112;24.738;2023-03-25T13:28:33;8.07;;;5.83;;
9888;SDS011;4983;42.112;24.738;2023-03-25T13:31:05;13.93;;;6.47;;
9888;SDS011;4983;42.112;24.738;2023-03-25T13:33:34;6.50;;;5.90;;
9888;SDS011;4983;42.112;24.738;2023-03-25T13:36:04;7.63;;;5.27;;
9888;SDS011;4983;42.112;24.738;2023-03-25T13:38:34;9.10;;;5.57;;
9888;SDS011;4983;42.112;24.738;2023-03-25T13:41:06;8.27;;;6.00;;
9888;SDS011;4983;42.112;24.738;2023-03-25T13:43:36;8.00;;;5.80;;
9888;SDS011;4983;42.112;24.738;2023-03-25T13:46:09;10.13;;;5.50;;
9888;SDS011;4983;42.112;24.738;2023-03-25T13:48:39;44.33;;;9.63;;
9888;SDS011;4983;42.112;24.738;2023-03-25T13:51:07;7.43;;;6.37;;
9888;SDS011;4983;42.112;24.738;2023-03-25T13:53:35;8.20;;;6.53;;
9888;SDS011;4983;42.112;24.738;2023-03-25T13:56:20;19.40;;;8.00;;
9888;SDS011;4983;42.112;24.738;2023-03-25T13:59:01;36.03;;;8.57;;
9888;SDS011;4983;42.112;24.738;2023-03-25T14:01:36;8.03;;;6.20;;
9888;SDS011;4983;42.112;24.738;2023-03-25T14:04:20;8.20;;;5.87;;
9888;SDS011;4983;42.112;24.738;2023-03-25T14:06:59;13.53;;;6.23;;
9888;SDS011;4983;42.112;24.738;2023-03-25T14:12:20;12.90;;;6.20;;
9888;SDS011;4983;42.112;24.738;2023-03-25T14:14:50;9.90;;;5.50;;
9888;SDS011;4983;42.112;24.738;2023-03-25T14:17:18;11.13;;;5.80;;
9888;SDS011;4983;42.112;24.738;2023-03-25T14:19:49;15.40;;;5.83;;
9888;SDS011;4983;42.112;24.738;2023-03-25T14:22:20;13.30;;;6.13;;
9888;SDS011;4983;42.112;24.738;2023-03-25T14:24:47;7.63;;;5.17;;
9888;SDS011;4983;42.112;24.738;2023-03-25T14:27:15;16.20;;;5.40;;
9888;SDS011;4983;42.112;24.738;2023-03-25T14:29:43;6.70;;;5.13;;
9888;SDS011;4983;42.112;24.738;2023-03-25T14:35:07;12.00;;;5.23;;
9888;SDS011;4983;42.112;24.738;2023-03-25T14:37:51;10.37;;;5.87;;
9888;SDS011;4983;42.112;24.738;2023-03-25T14:43:16;9.10;;;4.73;;
9888;SDS011;4983;42.112;24.738;2023-03-25T14:45:51;22.40;;;5.90;;
9888;SDS011;4983;42.112;24.738;2023-03-25T14:48:24;32.57;;;6.83;;
9888;SDS011;4983;42.112;24.738;2023-03-25T14:51:13;19.70;;;5.63;;
9888;SDS011;4983;42.112;24.738;2023-03-25T14:53:41;40.67;;;8.33;;
9888;SDS011;4983;42.112;24.738;2023-03-25T14:56:16;24.27;;;6.67;;
9888;SDS011;4983;42.112;24.738;2023-03-25T14:58:45;56.17;;;10.33;;
9888;SDS011;4983;42.112;24.738;2023-03-25T15:01:16;9.90;;;5.00;;
9888;SDS011;4983;42.112;24.738;2023-03-25T15:03:44;20.83;;;5.60;;
9888;SDS011;4983;42.112;24.738;2023-03-25T15:06:15;28.77;;;6.95;;
9888;SDS011;4983;42.112;24.738;2023-03-25T15:08:43;23.40;;;6.30;;
9888;SDS011;4983;42.112;24.738;2023-03-25T15:11:17;33.33;;;9.93;;
9888;SDS011;4983;42.112;24.738;2023-03-25T15:13:53;39.57;;;12.33;;